La Jara, NM (87027)

6:40 PM MDT on September 16, 2014 (GMT -0600)
RAWS CUBA NM US | Change Station
CLOSE
Current Station
Personal Weather Station
Location: Cuba, NM
Elevation: 7033 ft
Nearby Weather Stations

Elev 7033 ft 35.94 °N, 107.08 °W | Updated 59 minutes ago

Partly Cloudy
Partly Cloudy
73 °F
Feels Like 77 °F
N
3
Wind Variable Wind from SE
Gusts 13.0 mph

Today
High -- | Low -- °F
--% Chance of Precip.
Yesterday
High -- | Low -- °F
Precip. -- in
6:51 AM 7:13 PM
Last Quarter, 41% visible
Pressure 30.29 in
Visibility 10.0 miles
Clouds Clear
Heat Index 77 °F
Dew Point 48 °F
Humidity 41%
Rainfall 0.00 in
Snow Depth 0 in , 0 in , 0 in
UV 1 out of 12
Pollen 6.50 out of 12
Air Quality Not available.
Flu Activity Not available.
METAR KLAM 170015Z AUTO 18013G18KT 10SM CLR 20/10 A3029 RMK AO2 T02010100

More Conditions Fewer Conditions

Pressure 30.29 in
Visibility 10.0 miles
Clouds Clear
Heat Index 77 °F
Dew Point 48 °F
Humidity 41%
Rainfall 0.00 in
Snow Depth 0 in , 0 in , 0 in
UV 1 out of 12
Pollen 6.50 out of 12
Air Quality Not available.
Flu Activity Not available.
METAR KLAM 170015Z AUTO 18013G18KT 10SM CLR 20/10 A3029 RMK AO2 T02010100

More Conditions Fewer Conditions

Nowcast | as of 5:09 PM MDT on September 16, 2014

Through 7 PM MDT...isolated showers and thunderstorms will continue to develop over the northern mountains and drift slowly over adjacent Highlands and valleys. Rainfall amounts will average one quarter inch...but greater amounts near one inch are possible under the thunderstorms. Occasional lightning...small hail and gusty winds will accompany the thunderstorms. This activity will diminish around sunset.

×

10-Day Weather Forecast

Almanac

Astronomy

Sep. 16, 2014 Rise Set
Actual Time 6:51 AM MDT 7:13 PM MDT
Civil Twilight 6:25 AM MDT 7:39 PM MDT
Nautical Twilight 5:55 AM MDT 8:09 PM MDT
Astronomical Twilight 5:24 AM MDT 8:39 PM MDT
Moon 12:11 AM MDT (9/16) 2:31 PM MDT (9/16)
Length of Visible Light 13h 13m
Length of Day
12h 22m
Tomorrow will be 2m 16s shorter.
Last Quarter, 41% of the Moon is Illuminated
Today
Last Quarter
Sep 24
New
Oct 1
First Quarter
Oct 8
Full
Oct 15
Last Quarter

Today's Extremes

State Highs State Lows

Community

WunderPhotos

Upload Photos

1,753,935 photos uploaded!

Nearby

Snow Depth

Station Depth Elevation
Sierra Blanca 0 in 10280 ft
Red River Pass #2 0 in 9850 ft
Quemazon 0 in 9500 ft
McKnight Cabin 0 in 9240 ft
Gallegos Peak 0 in 9800 ft

Earthquake Activity

City Distance Mag. Time & Date
No recent earthquake activity has been reported nearby.
Minimum magnitude displayed is 2.5.

Coastal Water Temperatures

Place Temperature
No Stations Reporting

Nearby Weather Stations